Neches — WDC2613 — position and weather

sailwx.info

Track history (hours):
 
Tides and Currents Weather Stations Pressure Air Temp Water Temp Dewpoint Dewpoint Depression Visibility Wind Speed Wind Dir Waves Ship Positions

Neches

Owner: Kirby Inland Marine, LP, Houston, TX. More information available from US FCC via Universal Licensing System and Coast Guard Vessel Documentation Center.

Last reported at 2018-Jan-22 01:24 UTC. Time now 2018-Feb-17 20:07 UTC.
Position N 29°48' W 092°05'.
Warning: this ship's position is 26 days out of date.

Length 21 m.

Type: . MMSI: 366995590.

Date/timePositionNaut miles runAvg speedWind from/ knotsBaromVisibWave heightAir tempDewpointWater temp
2018-Jan-22 01:24N 29°48' W 092°05'2 5.4
2018-Jan-22 01:00N 29°47' W 092°07'3 5.4
2018-Jan-22 00:30N 29°47' W 092°10'3 5.6
2018-Jan-22 00:00N 29°48' W 092°13'3 5.8
2018-Jan-21 23:30N 29°49' W 092°16'3 5.0
2018-Jan-21 23:00N 29°50' W 092°19'38 2.1
2018-Jan-21 04:39N 29°56' W 093°02'1 4.7
2018-Jan-21 04:29N 29°56' W 093°03'3 4.6
2018-Jan-21 03:43N 29°56' W 093°07'1 4.7
2018-Jan-21 03:30N 29°56' W 093°08'1 2.4
2018-Jan-21 03:00N 29°56' W 093°09'2 4.6
2018-Jan-21 02:30N 29°58' W 093°11'2 4.8
2018-Jan-21 02:00N 29°60' W 093°13'2 4.5
2018-Jan-21 01:30N 30°01' W 093°14'2 4.3
2018-Jan-21 01:00N 30°03' W 093°16'2 4.9
2018-Jan-21 00:30N 30°05' W 093°17'2 3.9
2018-Jan-21 00:00N 30°05' W 093°19'2 3.2
2018-Jan-20 23:30N 30°04' W 093°21'2 3.4
2018-Jan-20 23:00N 30°04' W 093°22'2 4.8
2018-Jan-20 22:30N 30°04' W 093°25'3 5.1
2018-Jan-20 22:00N 30°04' W 093°28'3 5.1
2018-Jan-20 21:30N 30°04' W 093°31'3 5.0
2018-Jan-20 21:00N 30°04' W 093°34'3 5.1
2018-Jan-20 20:30N 30°04' W 093°37'3 5.2
2018-Jan-20 20:00N 30°04' W 093°40'  
Track history (hours):
 
Tides and Currents Weather Stations Pressure Air Temp Water Temp Dewpoint Dewpoint Depression Visibility Wind Speed Wind Dir Waves Ship Positions

Neches

Owner: Kirby Inland Marine, LP, Houston, TX. More information available from US FCC via Universal Licensing System and Coast Guard Vessel Documentation Center.

Last reported at 2018-Jan-22 01:24 UTC. Time now 2018-Feb-17 20:07 UTC.
Position N 29°48' W 092°05'.
Warning: this ship's position is 26 days out of date.

Length 21 m.

Type: . MMSI: 366995590.

Date/timePositionNaut miles runAvg speedWind from/ knotsBaromVisibWave heightAir tempDewpointWater temp
2018-Jan-22 01:24N 29°48' W 092°05'2 5.4
2018-Jan-22 01:00N 29°47' W 092°07'3 5.4
2018-Jan-22 00:30N 29°47' W 092°10'3 5.6
2018-Jan-22 00:00N 29°48' W 092°13'3 5.8
2018-Jan-21 23:30N 29°49' W 092°16'3 5.0
2018-Jan-21 23:00N 29°50' W 092°19'38 2.1
2018-Jan-21 04:39N 29°56' W 093°02'1 4.7
2018-Jan-21 04:29N 29°56' W 093°03'3 4.6
2018-Jan-21 03:43N 29°56' W 093°07'1 4.7
2018-Jan-21 03:30N 29°56' W 093°08'1 2.4
2018-Jan-21 03:00N 29°56' W 093°09'2 4.6
2018-Jan-21 02:30N 29°58' W 093°11'2 4.8
2018-Jan-21 02:00N 29°60' W 093°13'2 4.5
2018-Jan-21 01:30N 30°01' W 093°14'2 4.3
2018-Jan-21 01:00N 30°03' W 093°16'2 4.9
2018-Jan-21 00:30N 30°05' W 093°17'2 3.9
2018-Jan-21 00:00N 30°05' W 093°19'2 3.2
2018-Jan-20 23:30N 30°04' W 093°21'2 3.4
2018-Jan-20 23:00N 30°04' W 093°22'2 4.8
2018-Jan-20 22:30N 30°04' W 093°25'3 5.1
2018-Jan-20 22:00N 30°04' W 093°28'3 5.1
2018-Jan-20 21:30N 30°04' W 093°31'3 5.0
2018-Jan-20 21:00N 30°04' W 093°34'3 5.1
2018-Jan-20 20:30N 30°04' W 093°37'3 5.2
2018-Jan-20 20:00N 30°04' W 093°40'  

Dump ship's entire track history